| time (UTC) | temp C | wind direction | speed KPH | gust KPH | rain 1hr cm | rain 24hr cm | rain mn cm | humidity % | barometer mb |
| 20260507224044 | 11 | 277 | 1.6 | 6.4 | 0.00 | 0.97 | 0.05 | 40 | 1006.4 |
| 20260507223545 | 11 | 277 | 1.6 | 6.4 | 0.00 | 0.97 | 0.05 | 40 | 1006.4 |
| 20260507223120 | 11 | 277 | 0.0 | 6.4 | 0.00 | 0.97 | 0.03 | 40 | 1006.8 |
| 20260507223042 | 11 | 277 | 1.6 | 6.4 | 0.00 | 0.97 | 0.05 | 39 | 1006.4 |
| 20260507222545 | 11 | 277 | 1.6 | 6.4 | 0.00 | 0.97 | 0.05 | 38 | 1006.3 |
| 20260507221518 | 11 | 277 | 0.0 | 8.0 | 0.00 | 0.97 | 0.03 | 39 | 1006.6 |
| 20260507221039 | 12 | 277 | 1.6 | 6.4 | 0.00 | 0.97 | 0.05 | 38 | 1006.0 |
| 20260507220541 | 12 | 277 | 1.6 | 6.4 | 0.00 | 0.97 | 0.05 | 38 | 1005.9 |
| 20260507215540 | 12 | 277 | 1.6 | 6.4 | 0.00 | 0.97 | 0.05 | 39 | 1006.0 |
| 20260507215041 | 13 | 277 | 1.6 | 6.4 | 0.00 | 0.97 | 0.05 | 37 | 1006.1 |
| 20260507214541 | 12 | 277 | 1.6 | 8.0 | 0.00 | 0.97 | 0.05 | 41 | 1006.2 |
| 20260507214523 | 12 | 277 | 1.6 | 8.0 | 0.00 | 0.97 | 0.03 | 41 | 1006.6 |
| 20260507214040 | 12 | 277 | 1.6 | 8.0 | 0.00 | 0.97 | 0.05 | 37 | 1006.1 |
| 20260507213540 | 13 | 277 | 1.6 | 6.4 | 0.00 | 0.97 | 0.05 | 38 | 1006.0 |
| 20260507212541 | 12 | 277 | 1.6 | 6.4 | 0.00 | 0.97 | 0.05 | 38 | 1006.1 |
| 20260507212031 | 13 | 277 | 3.2 | 9.7 | 0.00 | 0.97 | 0.05 | 38 | 1006.0 |
| 20260507211514 | 13 | 277 | 1.6 | 9.7 | 0.00 | 1.04 | 0.03 | 38 | 1006.3 |
| 20260507211031 | 13 | 277 | 1.6 | 8.0 | 0.00 | 0.99 | 0.05 | 39 | 1006.0 |
| 20260507210531 | 13 | 277 | 3.2 | 9.7 | 0.00 | 0.99 | 0.05 | 35 | 1005.9 |
| 20260507210108 | 12 | 277 | 3.2 | 9.7 | 0.00 | 1.04 | 0.03 | 38 | 1006.4 |
| 20260507210029 | 12 | 277 | 3.2 | 9.7 | 0.00 | 0.99 | 0.05 | 38 | 1006.0 |
| 20260507205529 | 12 | 277 | 3.2 | 8.0 | 0.00 | 0.99 | 0.05 | 37 | 1006.0 |
| 20260507205030 | 13 | 277 | 3.2 | 12.9 | 0.00 | 0.99 | 0.05 | 35 | 1005.9 |
| 20260507204529 | 13 | 277 | 3.2 | 12.9 | 0.00 | 1.02 | 0.05 | 37 | 1005.9 |
| 20260507204510 | 12 | 277 | 1.6 | 12.9 | 0.00 | 1.04 | 0.03 | 39 | 1006.3 |
| 20260507204031 | 12 | 277 | 1.6 | 8.0 | 0.00 | 1.04 | 0.05 | 40 | 1005.8 |
| 20260507203529 | 13 | 277 | 1.6 | 8.0 | 0.00 | 1.04 | 0.05 | 39 | 1005.4 |
| 20260507203102 | 13 | 277 | 0.0 | 4.8 | 0.00 | 1.14 | 0.03 | 39 | 1005.9 |
| 20260507203029 | 13 | 277 | 1.6 | 4.8 | 0.00 | 1.04 | 0.05 | 40 | 1005.4 |
| 20260507202528 | 13 | 277 | 1.6 | 4.8 | 0.00 | 1.04 | 0.05 | 37 | 1005.4 |
| 20260507202030 | 14 | 277 | 3.2 | 12.9 | 0.00 | 1.04 | 0.05 | 36 | 1005.3 |
| 20260507201530 | 15 | 277 | 1.6 | 12.9 | 0.00 | 1.04 | 0.05 | 36 | 1005.6 |
| 20260507201029 | 15 | 277 | 3.2 | 9.7 | 0.00 | 1.07 | 0.05 | 36 | 1005.3 |
| 20260507200530 | 14 | 277 | 1.6 | 9.7 | 0.00 | 1.07 | 0.05 | 34 | 1005.6 |
| 20260507200054 | 13 | 277 | 0.0 | 8.0 | 0.00 | 1.14 | 0.03 | 37 | 1005.8 |
| 20260507200029 | 14 | 277 | 1.6 | 6.4 | 0.00 | 1.07 | 0.05 | 38 | 1005.3 |
| 20260507195530 | 13 | 277 | 1.6 | 11.3 | 0.00 | 1.09 | 0.05 | 36 | 1005.6 |
| 20260507195030 | 13 | 277 | 1.6 | 11.3 | 0.00 | 1.09 | 0.05 | 36 | 1005.7 |
| 20260507194028 | 13 | 277 | 1.6 | 4.8 | 0.00 | 1.12 | 0.05 | 43 | 1005.6 |
| 20260507193530 | 13 | 277 | 1.6 | 6.4 | 0.00 | 1.12 | 0.05 | 39 | 1005.4 |
| 20260507193036 | 13 | 277 | 1.6 | 9.7 | 0.00 | 1.30 | 0.03 | 40 | 1006.0 |
| 20260507193029 | 13 | 277 | 3.2 | 9.7 | 0.00 | 1.14 | 0.05 | 40 | 1005.6 |
| 20260507192530 | 13 | 277 | 3.2 | 11.3 | 0.00 | 1.14 | 0.05 | 39 | 1005.6 |
| 20260507192029 | 13 | 277 | 3.2 | 11.3 | 0.00 | 1.17 | 0.05 | 38 | 1005.7 |
| 20260507191632 | 14 | 277 | 1.6 | 8.0 | 0.00 | 1.30 | 0.03 | 41 | 1006.1 |
| 20260507191529 | 14 | 277 | 3.2 | 8.0 | 0.00 | 1.17 | 0.05 | 39 | 1005.7 |
| 20260507191028 | 13 | 277 | 1.6 | 8.0 | 0.00 | 1.19 | 0.05 | 38 | 1005.7 |
| 20260507190530 | 13 | 277 | 1.6 | 6.4 | 0.00 | 1.22 | 0.05 | 41 | 1005.6 |
| 20260507185530 | 14 | 277 | 3.2 | 9.7 | 0.00 | 1.24 | 0.05 | 37 | 1005.9 |
| 20260507185029 | 15 | 277 | 4.8 | 17.7 | 0.00 | 1.24 | 0.05 | 37 | 1005.8 |
| 20260507184030 | 15 | 277 | 3.2 | 12.9 | 0.00 | 1.27 | 0.05 | 38 | 1005.9 |
| 20260507183529 | 15 | 277 | 3.2 | 9.7 | 0.00 | 1.30 | 0.05 | 35 | 1005.8 |
| 20260507183037 | 14 | 277 | 0.0 | 17.7 | 0.00 | 2.18 | 0.03 | 45 | 1006.2 |
| 20260507183030 | 14 | 277 | 4.8 | 17.7 | 0.00 | 1.32 | 0.05 | 45 | 1005.9 |
| 20260507182530 | 14 | 277 | 4.8 | 17.7 | 0.00 | 1.40 | 0.05 | 36 | 1006.0 |
| 20260507181630 | 15 | 277 | 4.8 | 12.9 | 0.00 | 2.18 | 0.03 | 39 | 1006.3 |
| 20260507181530 | 15 | 277 | 3.2 | 12.9 | 0.00 | 1.55 | 0.05 | 42 | 1006.0 |
| 20260507181029 | 15 | 277 | 3.2 | 14.5 | 0.00 | 1.60 | 0.05 | 40 | 1006.0 |
| 20260507180530 | 15 | 277 | 3.2 | 14.5 | 0.00 | 1.68 | 0.05 | 40 | 1006.0 |
| 20260507180030 | 15 | 277 | 3.2 | 12.9 | 0.00 | 1.80 | 0.05 | 43 | 1006.1 |
| 20260507180025 | 14 | 277 | 4.8 | 12.9 | 0.00 | 2.18 | 0.03 | 43 | 1006.5 |
| 20260507175029 | 14 | 277 | 3.2 | 11.3 | 0.00 | 2.08 | 0.05 | 46 | 1006.1 |
| 20260507174639 | 13 | 277 | 1.6 | 12.9 | 0.00 | 2.18 | 0.03 | 42 | 1006.5 |
| 20260507174529 | 14 | 277 | 4.8 | 12.9 | 0.00 | 2.13 | 0.05 | 41 | 1006.1 |
| 20260507174029 | 13 | 277 | 3.2 | 12.9 | 0.00 | 2.16 | 0.05 | 44 | 1006.1 |
| 20260507173022 | 12 | 277 | 1.6 | 8.0 | 0.00 | 2.21 | 0.03 | 53 | 1006.5 |
| 20260507172529 | 12 | 277 | 3.2 | 14.5 | 0.00 | 2.18 | 0.05 | 51 | 1006.1 |
| 20260507172029 | 12 | 277 | 4.8 | 14.5 | 0.00 | 2.18 | 0.05 | 52 | 1006.3 |
| 20260507171030 | 12 | 277 | 1.6 | 9.7 | 0.00 | 2.18 | 0.05 | 55 | 1006.4 |
| 20260507170529 | 11 | 277 | 1.6 | 4.8 | 0.00 | 2.18 | 0.05 | 53 | 1006.4 |
| 20260507170030 | 11 | 277 | 1.6 | 9.7 | 0.00 | 2.18 | 0.05 | 50 | 1006.4 |
| 20260507170012 | 10 | 277 | 0.0 | 6.4 | 0.00 | 2.21 | 0.03 | 50 | 1006.8 |
| 20260507165529 | 11 | 277 | 1.6 | 9.7 | 0.00 | 2.18 | 0.05 | 56 | 1006.6 |
| 20260507164611 | 11 | 277 | 1.6 | 8.0 | 0.00 | 2.21 | 0.03 | 58 | 1007.0 |
| 20260507164529 | 11 | 277 | 3.2 | 8.0 | 0.00 | 2.21 | 0.05 | 58 | 1006.7 |
| 20260507163532 | 11 | 277 | 1.6 | 8.0 | 0.00 | 2.21 | 0.05 | 62 | 1006.7 |
| 20260507163030 | 12 | 277 | 1.6 | 8.0 | 0.00 | 2.21 | 0.05 | 64 | 1006.7 |
| 20260507163007 | 11 | 277 | 1.6 | 8.0 | 0.00 | 2.21 | 0.03 | 64 | 1007.1 |
| 20260507162530 | 11 | 277 | 1.6 | 4.8 | 0.00 | 2.21 | 0.05 | 63 | 1006.7 |
| 20260507162030 | 12 | 277 | 1.6 | 4.8 | 0.00 | 2.21 | 0.05 | 63 | 1006.7 |
| 20260507161601 | 12 | 277 | 0.0 | 4.8 | 0.00 | 2.21 | 0.03 | 61 | 1006.9 |
| 20260507161529 | 12 | 277 | 1.6 | 4.8 | 0.00 | 2.21 | 0.05 | 61 | 1006.6 |
| 20260507161029 | 12 | 277 | 1.6 | 4.8 | 0.00 | 2.21 | 0.05 | 62 | 1006.7 |
| 20260507160529 | 12 | 277 | 1.6 | 9.7 | 0.00 | 2.21 | 0.05 | 62 | 1006.8 |
| 20260507160028 | 12 | 277 | 1.6 | 9.7 | 0.00 | 2.21 | 0.05 | 61 | 1006.7 |
| 20260507160003 | 12 | 277 | 0.0 | 9.7 | 0.00 | 2.21 | 0.03 | 61 | 1007.1 |
| 20260507155029 | 13 | 277 | 1.6 | 4.8 | 0.00 | 2.21 | 0.05 | 59 | 1006.7 |
| 20260507154029 | 12 | 277 | 1.6 | 4.8 | 0.00 | 2.21 | 0.05 | 62 | 1006.8 |
| 20260507153530 | 12 | 277 | 1.6 | 6.4 | 0.00 | 2.21 | 0.05 | 63 | 1006.9 |
| 20260507153029 | 12 | 277 | 1.6 | 6.4 | 0.00 | 2.21 | 0.05 | 63 | 1006.9 |
| 20260507153003 | 12 | 277 | 0.0 | 6.4 | 0.00 | 2.21 | 0.03 | 64 | 1007.3 |
| 20260507152530 | 12 | 277 | 1.6 | 4.8 | 0.00 | 2.21 | 0.05 | 61 | 1007.0 |
| 20260507152029 | 12 | 277 | 0.0 | 4.8 | 0.00 | 2.21 | 0.05 | 60 | 1007.0 |
| 20260507151602 | 12 | 277 | 0.0 | 3.2 | 0.00 | 2.21 | 0.03 | 63 | 1007.3 |
| 20260507151530 | 12 | 277 | 0.0 | 3.2 | 0.00 | 2.21 | 0.05 | 61 | 1007.0 |
| 20260507151029 | 12 | 277 | 1.6 | 4.8 | 0.00 | 2.21 | 0.05 | 61 | 1007.0 |
| 20260507150529 | 12 | 277 | 1.6 | 4.8 | 0.00 | 2.21 | 0.05 | 61 | 1007.0 |
| 20260507150030 | 12 | 277 | 1.6 | 4.8 | 0.00 | 2.21 | 0.05 | 59 | 1007.0 |
| 20260507150003 | 12 | 277 | 1.6 | 4.8 | 0.00 | 2.21 | 0.03 | 59 | 1007.3 |
| 20260507145530 | 12 | 277 | 3.2 | 8.0 | 0.00 | 2.21 | 0.05 | 61 | 1007.0 |
| 20260507145029 | 12 | 277 | 3.2 | 8.0 | 0.00 | 2.21 | 0.05 | 62 | 1006.9 |
| 20260507144603 | 12 | 277 | 0.0 | 4.8 | 0.00 | 2.21 | 0.03 | 63 | 1007.3 |
| 20260507144528 | 12 | 277 | 1.6 | 4.8 | 0.00 | 2.21 | 0.05 | 62 | 1007.0 |
| 20260507144031 | 13 | 277 | 1.6 | 4.8 | 0.00 | 2.21 | 0.05 | 62 | 1006.9 |
| 20260507143529 | 12 | 277 | 1.6 | 6.4 | 0.00 | 2.21 | 0.05 | 59 | 1007.0 |
| 20260507143203 | 12 | 277 | 0.0 | 6.4 | 0.00 | 2.21 | 0.03 | 62 | 1007.6 |
| 20260507143029 | 12 | 277 | 3.2 | 6.4 | 0.00 | 2.21 | 0.05 | 62 | 1007.2 |
| 20260507142529 | 12 | 277 | 1.6 | 6.4 | 0.00 | 2.21 | 0.05 | 66 | 1007.1 |
| 20260507142030 | 12 | 277 | 1.6 | 6.4 | 0.00 | 2.21 | 0.05 | 64 | 1007.0 |
| 20260507141030 | 12 | 277 | 1.6 | 6.4 | 0.00 | 2.21 | 0.05 | 65 | 1007.1 |
| 20260507135523 | 11 | 277 | 3.2 | 11.3 | 0.00 | 2.21 | 0.05 | 65 | 1007.5 |
| 20260507134531 | 11 | 277 | 0.0 | 4.8 | 0.00 | 2.21 | 0.03 | 65 | 1007.8 |
| 20260507134522 | 12 | 277 | 1.6 | 4.8 | 0.00 | 2.21 | 0.05 | 65 | 1007.4 |
| 20260507133130 | 11 | 277 | 1.6 | 4.8 | 0.00 | 2.21 | 0.03 | 69 | 1008.0 |
| 20260507133015 | 11 | 277 | 0.0 | 4.8 | 0.00 | 2.21 | 0.05 | 69 | 1007.6 |
| 20260507131558 | 11 | 277 | 1.6 | 3.2 | 0.00 | 2.21 | 0.03 | 69 | 1008.1 |
| 20260507131515 | 11 | 277 | 0.0 | 3.2 | 0.00 | 2.21 | 0.05 | 69 | 1007.7 |
| 20260507131015 | 11 | 277 | 0.0 | 3.2 | 0.00 | 2.21 | 0.05 | 71 | 1007.6 |
| 20260507130516 | 11 | 277 | 0.0 | 4.8 | 0.00 | 2.21 | 0.05 | 70 | 1007.6 |
| 20260507130119 | 11 | 277 | 0.0 | 4.8 | 0.00 | 2.21 | 0.03 | 71 | 1008.0 |
| 20260507130013 | 11 | 277 | 0.0 | 4.8 | 0.00 | 2.21 | 0.05 | 71 | 1007.6 |
| 20260507125510 | 11 | 277 | 1.6 | 3.2 | 0.00 | 2.21 | 0.05 | 70 | 1007.7 |
| 20260507125012 | 10 | 277 | 0.0 | 3.2 | 0.00 | 2.21 | 0.05 | 72 | 1007.8 |
| 20260507124521 | 10 | 277 | 0.0 | 0.0 | 0.00 | 2.21 | 0.03 | 72 | 1008.1 |
| 20260507124511 | 10 | 277 | 0.0 | 1.6 | 0.00 | 2.21 | 0.05 | 75 | 1007.7 |
| 20260507124011 | 10 | 277 | 0.0 | 1.6 | 0.00 | 2.21 | 0.05 | 74 | 1007.7 |
| 20260507123512 | 10 | 277 | 0.0 | 1.6 | 0.00 | 2.21 | 0.05 | 78 | 1007.7 |
| 20260507123116 | 9 | 277 | 0.0 | 3.2 | 0.00 | 2.21 | 0.03 | 78 | 1008.3 |
| 20260507123012 | 9 | 277 | 0.0 | 3.2 | 0.00 | 2.21 | 0.05 | 77 | 1007.9 |
| 20260507122511 | 8 | 277 | 1.6 | 3.2 | 0.00 | 2.21 | 0.05 | 78 | 1007.7 |
| 20260507122011 | 8 | 277 | 1.6 | 3.2 | 0.00 | 2.21 | 0.05 | 79 | 1007.7 |
| 20260507121520 | 7 | 277 | 0.0 | 3.2 | 0.00 | 2.21 | 0.03 | 82 | 1008.2 |
| 20260507121513 | 8 | 277 | 1.6 | 3.2 | 0.00 | 2.21 | 0.05 | 82 | 1007.8 |
| 20260507121010 | 7 | 277 | 0.0 | 3.2 | 0.00 | 2.21 | 0.05 | 83 | 1007.7 |
| 20260507120512 | 7 | 277 | 0.0 | 1.6 | 0.00 | 2.21 | 0.05 | 84 | 1007.6 |
| 20260507120108 | 7 | 277 | 0.0 | 1.6 | 0.00 | 2.21 | 0.03 | 84 | 1008.0 |
| 20260507120008 | 7 | 277 | 0.0 | 1.6 | 0.00 | 2.21 | 0.05 | 84 | 1007.7 |
| 20260507115506 | 7 | 277 | 0.0 | 1.6 | 0.00 | 2.21 | 0.05 | 85 | 1007.7 |
| 20260507115007 | 6 | 277 | 0.0 | 0.0 | 0.00 | 2.21 | 0.05 | 86 | 1007.8 |
| 20260507114514 | 6 | 277 | 0.0 | 0.0 | 0.00 | 2.21 | 0.03 | 89 | 1008.1 |
| 20260507114507 | 6 | 277 | 0.0 | 0.0 | 0.00 | 2.21 | 0.05 | 89 | 1007.7 |
| 20260507114008 | 5 | 277 | 0.0 | 0.0 | 0.00 | 2.21 | 0.05 | 91 | 1007.8 |
| 20260507113508 | 5 | 277 | 0.0 | 0.0 | 0.00 | 2.21 | 0.05 | 91 | 1008.0 |
| 20260507113135 | 5 | 277 | 0.0 | 0.0 | 0.00 | 2.21 | 0.03 | 91 | 1008.3 |
| 20260507113006 | 5 | 277 | 0.0 | 0.0 | 0.00 | 2.21 | 0.05 | 91 | 1008.0 |
| 20260507112508 | 5 | 277 | 0.0 | 0.0 | 0.00 | 2.21 | 0.05 | 92 | 1008.2 |
| 20260507112003 | 5 | 277 | 0.0 | 0.0 | 0.03 | 2.21 | 0.05 | 91 | 1008.3 |
| 20260507111510 | 5 | 277 | 0.0 | 0.0 | 0.03 | 2.21 | 0.03 | 92 | 1008.4 |
| 20260507111503 | 5 | 277 | 0.0 | 0.0 | 0.03 | 2.21 | 0.05 | 92 | 1008.1 |
| 20260507111002 | 5 | 277 | 0.0 | 0.0 | 0.03 | 2.21 | 0.05 | 91 | 1008.0 |
| 20260507110503 | 5 | 277 | 0.0 | 0.0 | 0.03 | 2.21 | 0.05 | 91 | 1008.0 |
| 20260507110106 | 5 | 277 | 0.0 | 0.0 | 0.03 | 2.21 | 0.03 | 91 | 1008.4 |
| 20260507110004 | 5 | 277 | 0.0 | 0.0 | 0.03 | 2.21 | 0.05 | 92 | 1008.0 |
| 20260507105501 | 5 | 277 | 0.0 | 0.0 | 0.03 | 2.21 | 0.05 | 91 | 1007.9 |
| 20260507105002 | 5 | 277 | 0.0 | 0.0 | 0.03 | 2.21 | 0.05 | 90 | 1008.1 |
| 20260507104514 | 5 | 277 | 0.0 | 0.0 | 0.03 | 2.21 | 0.03 | 89 | 1008.4 |
| 20260507104502 | 5 | 277 | 0.0 | 0.0 | 0.03 | 2.21 | 0.05 | 89 | 1008.1 |
| 20260507104000 | 5 | 277 | 0.0 | 0.0 | 0.03 | 2.21 | 0.05 | 92 | 1008.1 |
| 20260507103502 | 5 | 277 | 0.0 | 0.0 | 0.03 | 2.21 | 0.05 | 93 | 1008.2 |
| 20260507102501 | 5 | 277 | 0.0 | 0.0 | 0.03 | 2.21 | 0.05 | 94 | 1007.9 |
| 20260507102002 | 5 | 277 | 0.0 | 0.0 | 0.00 | 2.18 | 0.03 | 94 | 1007.7 |
| 20260507101502 | 4 | 277 | 0.0 | 0.0 | 0.00 | 2.18 | 0.00 | 94 | 1007.9 |
| 20260507101000 | 4 | 277 | 0.0 | 0.0 | 0.00 | 2.18 | 0.03 | 94 | 1007.6 |
| 20260507100501 | 4 | 277 | 0.0 | 0.0 | 0.00 | 2.18 | 0.03 | 95 | 1007.6 |
| 20260507100055 | 4 | 277 | 0.0 | 0.0 | 0.00 | 2.18 | 0.00 | 95 | 1007.9 |
| 20260507100001 | 4 | 277 | 0.0 | 0.0 | 0.00 | 2.18 | 0.03 | 95 | 1007.7 |
| 20260507095502 | 4 | 277 | 0.0 | 0.0 | 0.00 | 2.18 | 0.03 | 95 | 1007.6 |
| 20260507095001 | 5 | 277 | 0.0 | 0.0 | 0.00 | 2.18 | 0.03 | 95 | 1007.5 |
| 20260507094630 | 4 | 277 | 0.0 | 0.0 | 0.00 | 2.18 | 0.00 | 95 | 1007.8 |
| 20260507094502 | 5 | 277 | 0.0 | 0.0 | 0.00 | 2.18 | 0.03 | 95 | 1007.5 |
| 20260507093027 | 5 | 277 | 0.0 | 0.0 | 0.00 | 2.18 | 0.00 | 95 | 1007.6 |
| 20260507093002 | 5 | 277 | 0.0 | 0.0 | 0.00 | 2.18 | 0.03 | 95 | 1007.3 |
| 20260507092502 | 5 | 277 | 0.0 | 0.0 | 0.00 | 2.18 | 0.03 | 95 | 1007.3 |
| 20260507092002 | 5 | 277 | 0.0 | 0.0 | 0.00 | 2.18 | 0.03 | 95 | 1007.2 |
| 20260507091002 | 5 | 277 | 0.0 | 0.0 | 0.00 | 2.18 | 0.03 | 95 | 1007.2 |
| 20260507090501 | 5 | 277 | 0.0 | 0.0 | 0.00 | 2.18 | 0.03 | 95 | 1007.4 |
| 20260507090009 | 5 | 277 | 0.0 | 0.0 | 0.00 | 2.18 | 0.00 | 95 | 1007.4 |
| 20260507090003 | 5 | 277 | 0.0 | 0.0 | 0.00 | 2.18 | 0.03 | 95 | 1007.2 |
| 20260507085502 | 5 | 277 | 0.0 | 0.0 | 0.00 | 2.18 | 0.03 | 95 | 1007.3 |
| 20260507084604 | 5 | 277 | 0.0 | 0.0 | 0.00 | 2.18 | 0.00 | 94 | 1007.6 |
| 20260507084501 | 5 | 277 | 0.0 | 0.0 | 0.00 | 2.18 | 0.03 | 94 | 1007.4 |
| 20260507083503 | 5 | 277 | 0.0 | 0.0 | 0.00 | 2.18 | 0.03 | 94 | 1007.5 |
| 20260507083017 | 5 | 277 | 0.0 | 0.0 | 0.00 | 2.18 | 0.00 | 94 | 1007.6 |
| 20260507082955 | 5 | 277 | 0.0 | 0.0 | 0.00 | 2.18 | 0.03 | 94 | 1007.4 |
| 20260507082456 | 5 | 277 | 0.0 | 0.0 | 0.00 | 2.18 | 0.03 | 94 | 1007.1 |
| 20260507081953 | 5 | 277 | 0.0 | 0.0 | 0.00 | 2.18 | 0.03 | 94 | 1007.1 |
| 20260507081540 | 5 | 277 | 0.0 | 0.0 | 0.00 | 2.18 | 0.00 | 94 | 1007.1 |
| 20260507081451 | 6 | 277 | 0.0 | 0.0 | 0.00 | 2.18 | 0.03 | 94 | 1006.9 |
| 20260507080950 | 6 | 277 | 0.0 | 0.0 | 0.00 | 2.18 | 0.03 | 93 | 1007.0 |
| 20260507080451 | 6 | 277 | 0.0 | 0.0 | 0.00 | 2.18 | 0.03 | 93 | 1006.9 |
| 20260507080133 | 5 | 277 | 0.0 | 0.0 | 0.00 | 2.18 | 0.00 | 93 | 1007.1 |
| 20260507075948 | 6 | 277 | 0.0 | 0.0 | 0.00 | 2.18 | 0.03 | 93 | 1006.8 |
| 20260507075448 | 6 | 277 | 0.0 | 0.0 | 0.00 | 2.18 | 0.03 | 93 | 1006.8 |
| 20260507074531 | 6 | 277 | 0.0 | 0.0 | 0.00 | 2.18 | 0.00 | 92 | 1007.3 |
| 20260507074447 | 6 | 277 | 0.0 | 0.0 | 0.00 | 2.18 | 0.03 | 92 | 1007.1 |
| 20260507073946 | 6 | 277 | 0.0 | 0.0 | 0.00 | 2.18 | 0.03 | 91 | 1007.1 |
| 20260507073442 | 6 | 277 | 0.0 | 0.0 | 0.00 | 2.18 | 0.03 | 92 | 1007.3 |
| 20260507073125 | 6 | 277 | 0.0 | 0.0 | 0.00 | 2.18 | 2.18 | 92 | 1007.6 |
| 20260507072940 | 6 | 277 | 0.0 | 0.0 | 0.00 | 2.18 | 0.03 | 92 | 1007.5 |
| 20260507072440 | 6 | 277 | 0.0 | 0.0 | 0.00 | 2.18 | 0.03 | 93 | 1007.3 |
| 20260507071940 | 6 | 277 | 0.0 | 0.0 | 0.00 | 2.18 | 0.03 | 93 | 1007.3 |
| 20260507070932 | 6 | 277 | 0.0 | 1.6 | 0.00 | 2.18 | 0.03 | 92 | 1007.0 |
| 20260507070432 | 6 | 277 | 0.0 | 4.8 | 0.00 | 2.18 | 0.03 | 91 | 1007.2 |
| 20260507070118 | 6 | 277 | 0.0 | 4.8 | 0.00 | 2.18 | 2.18 | 91 | 1007.3 |
| 20260507065931 | 6 | 277 | 0.0 | 4.8 | 0.00 | 2.18 | 0.03 | 91 | 1007.2 |
| 20260507065430 | 6 | 277 | 0.0 | 3.2 | 0.00 | 2.18 | 0.03 | 91 | 1007.1 |
| 20260507064930 | 6 | 277 | 0.0 | 3.2 | 0.00 | 2.18 | 0.03 | 91 | 1006.9 |
| 20260507064650 | 6 | 277 | 0.0 | 3.2 | 0.00 | 2.18 | 2.18 | 91 | 1007.2 |
| 20260507063929 | 6 | 277 | 0.0 | 3.2 | 0.00 | 2.18 | 0.03 | 92 | 1007.1 |
| 20260507063103 | 6 | 277 | 0.0 | 4.8 | 0.00 | 2.18 | 2.18 | 92 | 1007.1 |
| 20260507062929 | 6 | 277 | 1.6 | 4.8 | 0.00 | 2.18 | 0.03 | 92 | 1006.8 |
| 20260507062430 | 6 | 277 | 1.6 | 4.8 | 0.00 | 2.18 | 0.03 | 92 | 1006.7 |
| 20260507061929 | 6 | 277 | 1.6 | 4.8 | 0.00 | 2.18 | 0.03 | 92 | 1006.7 |
| 20260507061504 | 6 | 277 | 0.0 | 4.8 | 0.00 | 2.18 | 2.18 | 93 | 1006.8 |
| 20260507061430 | 6 | 277 | 1.6 | 4.8 | 0.00 | 2.18 | 0.03 | 93 | 1006.6 |
| 20260507060930 | 6 | 277 | 1.6 | 4.8 | 0.00 | 2.18 | 0.03 | 93 | 1006.5 |
| 20260507060429 | 6 | 277 | 0.0 | 3.2 | 0.00 | 2.18 | 0.03 | 93 | 1006.6 |
| 20260507055929 | 7 | 277 | 0.0 | 0.0 | 0.00 | 2.18 | 0.03 | 94 | 1006.5 |
| 20260507055423 | 7 | 277 | 0.0 | 1.6 | 0.00 | 2.18 | 0.03 | 93 | 1006.5 |
| 20260507054649 | 7 | 277 | 0.0 | 3.2 | 0.00 | 2.18 | 2.18 | 93 | 1006.6 |
| 20260507054416 | 7 | 277 | 1.6 | 4.8 | 0.00 | 2.18 | 0.03 | 93 | 1006.5 |
| 20260507053917 | 7 | 277 | 1.6 | 4.8 | 0.00 | 2.18 | 0.03 | 93 | 1006.7 |
| 20260507053416 | 7 | 277 | 1.6 | 4.8 | 0.00 | 2.18 | 0.03 | 94 | 1006.5 |
| 20260507053031 | 7 | 277 | 0.0 | 4.8 | 0.00 | 2.18 | 2.18 | 94 | 1006.6 |
| 20260507052917 | 7 | 277 | 1.6 | 4.8 | 0.00 | 2.18 | 0.03 | 94 | 1006.5 |
| 20260507052417 | 7 | 277 | 1.6 | 3.2 | 0.00 | 2.18 | 0.03 | 94 | 1006.3 |
| 20260507051632 | 7 | 277 | 0.0 | 0.0 | 0.00 | 2.18 | 2.18 | 94 | 1006.4 |
| 20260507051413 | 7 | 277 | 0.0 | 1.6 | 0.00 | 2.18 | 0.03 | 94 | 1006.3 |
| 20260507050910 | 7 | 277 | 1.6 | 4.8 | 0.00 | 2.18 | 0.03 | 94 | 1006.3 |
| 20260507050057 | 7 | 277 | 1.6 | 4.8 | 0.03 | 2.18 | 2.18 | 94 | 1006.4 |
| 20260507045907 | 7 | 277 | 0.0 | 3.2 | 0.03 | 2.18 | 0.03 | 94 | 1006.5 |
| 20260507045405 | 7 | 277 | 0.0 | 3.2 | 0.05 | 2.18 | 0.03 | 94 | 1006.3 |
| 20260507044621 | 7 | 277 | 0.0 | 3.2 | 0.05 | 2.18 | 2.18 | 94 | 1006.5 |
| 20260507044403 | 7 | 277 | 1.6 | 6.4 | 0.05 | 2.18 | 0.03 | 94 | 1006.3 |
| 20260507043902 | 7 | 277 | 1.6 | 6.4 | 0.05 | 2.18 | 0.03 | 93 | 1006.5 |
| 20260507043401 | 7 | 277 | 1.6 | 4.8 | 0.05 | 2.18 | 0.03 | 93 | 1006.7 |
| 20260507043015 | 7 | 277 | 1.6 | 6.4 | 0.05 | 2.18 | 2.18 | 93 | 1006.8 |
| 20260507042901 | 7 | 277 | 3.2 | 6.4 | 0.05 | 2.18 | 0.03 | 92 | 1006.7 |
| 20260507042400 | 7 | 277 | 3.2 | 8.0 | 0.08 | 2.18 | 0.03 | 93 | 1006.8 |
| 20260507041901 | 7 | 277 | 3.2 | 8.0 | 0.08 | 2.18 | 0.03 | 93 | 1006.8 |
| 20260507041616 | 7 | 277 | 3.2 | 8.0 | 0.08 | 2.18 | 2.18 | 93 | 1006.9 |
| 20260507041402 | 7 | 277 | 3.2 | 8.0 | 0.08 | 2.18 | 0.03 | 92 | 1006.9 |
| 20260507040903 | 8 | 277 | 1.6 | 9.7 | 0.08 | 2.18 | 0.03 | 92 | 1007.0 |
| 20260507040403 | 8 | 277 | 1.6 | 9.7 | 0.08 | 2.16 | 0.00 | 92 | 1007.1 |
| 20260507040018 | 7 | 277 | 0.0 | 6.4 | 0.08 | 2.16 | 2.16 | 92 | 1007.2 |
| 20260507035901 | 8 | 277 | 1.6 | 6.4 | 0.08 | 2.16 | 2.16 | 92 | 1007.2 |
| 20260507035401 | 8 | 277 | 1.6 | 8.0 | 0.05 | 2.13 | 2.13 | 92 | 1007.2 |
| 20260507034901 | 8 | 277 | 1.6 | 8.0 | 0.08 | 2.13 | 2.13 | 93 | 1007.1 |
| 20260507034614 | 8 | 277 | 3.2 | 8.0 | 0.10 | 2.13 | 2.13 | 93 | 1007.2 |
| 20260507034401 | 8 | 277 | 1.6 | 6.4 | 0.10 | 2.13 | 2.13 | 93 | 1007.1 |
| 20260507033901 | 8 | 277 | 3.2 | 6.4 | 0.10 | 2.13 | 2.13 | 93 | 1006.9 |
| 20260507033402 | 8 | 277 | 3.2 | 6.4 | 0.13 | 2.13 | 2.13 | 93 | 1006.9 |
| 20260507033013 | 8 | 277 | 3.2 | 6.4 | 0.13 | 2.13 | 2.13 | 93 | 1007.0 |
| 20260507032902 | 8 | 277 | 1.6 | 6.4 | 0.13 | 2.13 | 2.13 | 93 | 1006.9 |
| 20260507032403 | 8 | 277 | 1.6 | 4.8 | 0.10 | 2.11 | 2.11 | 94 | 1006.6 |
| 20260507031602 | 8 | 277 | 0.0 | 4.8 | 0.13 | 2.11 | 2.11 | 94 | 1006.6 |
| 20260507031401 | 9 | 277 | 1.6 | 4.8 | 0.13 | 2.11 | 2.11 | 94 | 1006.6 |
| 20260507030902 | 9 | 277 | 1.6 | 6.4 | 0.18 | 2.11 | 2.11 | 93 | 1006.6 |
| 20260507030127 | 9 | 277 | 0.0 | 3.2 | 0.18 | 2.08 | 2.08 | 94 | 1006.6 |
| 20260507025401 | 9 | 277 | 0.0 | 6.4 | 0.18 | 2.08 | 2.06 | 94 | 1006.4 |
| 20260507024902 | 9 | 277 | 1.6 | 6.4 | 0.15 | 2.06 | 2.03 | 93 | 1006.5 |
| 20260507024601 | 9 | 277 | 1.6 | 6.4 | 0.13 | 2.03 | 2.03 | 93 | 1006.5 |
| 20260507024405 | 10 | 277 | 1.6 | 6.4 | 0.13 | 2.03 | 2.03 | 93 | 1006.3 |
| 20260507023902 | 10 | 277 | 1.6 | 6.4 | 0.15 | 2.03 | 2.03 | 94 | 1006.2 |
| 20260507023401 | 10 | 277 | 1.6 | 6.4 | 0.13 | 2.01 | 2.01 | 94 | 1006.2 |
| 20260507023152 | 10 | 277 | 1.6 | 6.4 | 0.13 | 2.03 | 2.01 | 94 | 1006.1 |
| 20260507022902 | 10 | 277 | 1.6 | 6.4 | 0.13 | 2.01 | 2.01 | 95 | 1006.1 |
| 20260507022401 | 10 | 277 | 0.0 | 3.2 | 0.13 | 2.01 | 2.01 | 95 | 1006.1 |
| 20260507021902 | 10 | 277 | 0.0 | 3.2 | 0.10 | 2.01 | 1.98 | 95 | 1006.0 |
| 20260507021553 | 10 | 277 | 0.0 | 3.2 | 0.10 | 2.01 | 1.98 | 95 | 1006.1 |
| 20260507021401 | 10 | 277 | 0.0 | 3.2 | 0.10 | 2.01 | 1.96 | 95 | 1006.2 |
| 20260507020902 | 10 | 277 | 0.0 | 3.2 | 0.05 | 1.96 | 1.93 | 95 | 1006.1 |
| 20260507020402 | 10 | 277 | 0.0 | 3.2 | 0.03 | 1.93 | 1.91 | 95 | 1005.8 |
| 20260507020127 | 10 | 277 | 0.0 | 1.6 | 0.03 | 1.93 | 1.91 | 95 | 1005.7 |
| 20260507015902 | 11 | 277 | 0.0 | 1.6 | 0.03 | 1.93 | 1.91 | 95 | 1005.7 |
| 20260507015402 | 11 | 277 | 0.0 | 1.6 | 0.03 | 1.93 | 1.91 | 95 | 1005.7 |
| 20260507014901 | 11 | 277 | 0.0 | 1.6 | 0.03 | 1.93 | 1.91 | 95 | 1005.6 |
| 20260507014521 | 11 | 277 | 0.0 | 1.6 | 0.03 | 1.93 | 1.91 | 95 | 1005.6 |
| 20260507014401 | 11 | 277 | 0.0 | 0.0 | 0.03 | 1.93 | 1.91 | 95 | 1005.7 |
| 20260507013901 | 11 | 277 | 0.0 | 0.0 | 0.00 | 1.91 | 1.88 | 95 | 1005.7 |
| 20260507013403 | 11 | 277 | 0.0 | 0.0 | 0.00 | 1.91 | 1.88 | 95 | 1005.8 |
| 20260507013111 | 11 | 277 | 0.0 | 0.0 | 0.00 | 1.91 | 1.88 | 95 | 1005.7 |
| 20260507012902 | 11 | 277 | 0.0 | 0.0 | 0.00 | 1.91 | 1.88 | 96 | 1005.6 |
| 20260507012402 | 11 | 277 | 0.0 | 0.0 | 0.00 | 1.91 | 1.88 | 96 | 1005.7 |
| 20260507011902 | 11 | 277 | 0.0 | 0.0 | 0.00 | 1.91 | 1.88 | 95 | 1005.7 |
| 20260507011514 | 11 | 277 | 0.0 | 0.0 | 0.00 | 1.91 | 1.88 | 96 | 1005.7 |
| 20260507011403 | 11 | 277 | 0.0 | 0.0 | 0.00 | 1.91 | 1.88 | 96 | 1005.7 |
| 20260507010900 | 11 | 277 | 0.0 | 0.0 | 0.00 | 1.91 | 1.88 | 95 | 1005.7 |
| 20260507010402 | 11 | 277 | 0.0 | 0.0 | 0.05 | 1.91 | 1.88 | 95 | 1005.6 |
| 20260507005904 | 11 | 277 | 0.0 | 0.0 | 0.13 | 1.91 | 1.88 | 95 | 1005.6 |
| 20260507005402 | 11 | 277 | 0.0 | 0.0 | 0.23 | 1.91 | 1.88 | 95 | 1005.7 |
| 20260507004901 | 11 | 277 | 0.0 | 0.0 | 0.38 | 1.91 | 1.88 | 95 | 1005.7 |
| 20260507004653 | 11 | 277 | 0.0 | 0.0 | 0.43 | 1.91 | 1.88 | 95 | 1005.6 |
| 20260507004359 | 11 | 277 | 0.0 | 1.6 | 0.43 | 1.91 | 1.88 | 95 | 1005.7 |
| 20260507003858 | 12 | 277 | 0.0 | 1.6 | 0.46 | 1.91 | 1.88 | 95 | 1005.7 |
| 20260507003358 | 12 | 277 | 0.0 | 1.6 | 0.46 | 1.91 | 1.88 | 95 | 1005.7 |
| 20260507003039 | 11 | 277 | 0.0 | 1.6 | 0.46 | 1.91 | 1.88 | 95 | 1005.5 |
| 20260507002856 | 12 | 277 | 0.0 | 1.6 | 0.48 | 1.91 | 1.88 | 95 | 1005.6 |
| 20260507002357 | 12 | 277 | 0.0 | 1.6 | 0.48 | 1.91 | 1.88 | 95 | 1005.6 |
| 20260507001856 | 12 | 277 | 1.6 | 3.2 | 0.48 | 1.91 | 1.88 | 95 | 1005.4 |
| 20260507001630 | 12 | 277 | 0.0 | 3.2 | 0.48 | 1.91 | 1.88 | 95 | 1005.4 |
| 20260507001356 | 12 | 277 | 1.6 | 3.2 | 0.48 | 1.91 | 1.88 | 94 | 1005.3 |
| 20260507000855 | 12 | 277 | 1.6 | 3.2 | 0.48 | 1.91 | 1.85 | 94 | 1005.3 |
| 20260507000357 | 12 | 277 | 1.6 | 4.8 | 0.46 | 1.85 | 1.83 | 93 | 1005.2 |
| 20260507000033 | 12 | 277 | 0.0 | 4.8 | 0.46 | 1.80 | 1.78 | 93 | 1005.1 |
| 20260506235850 | 13 | 277 | 1.6 | 4.8 | 0.46 | 1.78 | 1.75 | 93 | 1005.1 |
| 20260506235347 | 13 | 277 | 1.6 | 4.8 | 0.36 | 1.68 | 1.63 | 93 | 1005.1 |
| 20260506234846 | 14 | 277 | 1.6 | 4.8 | 0.20 | 1.50 | 1.47 | 94 | 1004.9 |
| 20260506234627 | 13 | 277 | 1.6 | 4.8 | 0.18 | 1.45 | 1.42 | 94 | 1004.7 |
| 20260506234346 | 14 | 277 | 1.6 | 4.8 | 0.20 | 1.47 | 1.45 | 94 | 1004.5 |
| 20260506233846 | 14 | 277 | 1.6 | 8.0 | 0.18 | 1.45 | 1.42 | 94 | 1004.2 |
| 20260506233347 | 14 | 277 | 3.2 | 9.7 | 0.18 | 1.45 | 1.42 | 94 | 1004.1 |
| 20260506233013 | 14 | 277 | 1.6 | 12.9 | 0.15 | 1.45 | 1.40 | 94 | 1004.0 |
| 20260506232844 | 14 | 277 | 4.8 | 14.5 | 0.15 | 1.42 | 1.40 | 94 | 1004.1 |
| 20260506232343 | 14 | 277 | 4.8 | 16.1 | 0.15 | 1.42 | 1.40 | 94 | 1004.1 |
| 20260506231845 | 14 | 277 | 4.8 | 16.1 | 0.15 | 1.42 | 1.40 | 93 | 1004.1 |
| 20260506231609 | 14 | 277 | 3.2 | 16.1 | 0.15 | 1.45 | 1.40 | 93 | 1004.0 |
| 20260506231344 | 14 | 277 | 3.2 | 11.3 | 0.15 | 1.42 | 1.40 | 94 | 1004.3 |
| 20260506230844 | 14 | 277 | 3.2 | 11.3 | 0.15 | 1.42 | 1.40 | 94 | 1004.3 |
| 20260506230012 | 14 | 277 | 1.6 | 9.7 | 0.08 | 1.40 | 1.32 | 94 | 1004.3 |
| 20260506225844 | 15 | 277 | 3.2 | 9.7 | 0.05 | 1.35 | 1.30 | 94 | 1004.4 |
| 20260506225344 | 15 | 277 | 3.2 | 8.0 | 0.05 | 1.35 | 1.30 | 94 | 1004.5 |
| 20260506224844 | 15 | 277 | 3.2 | 9.7 | 0.03 | 1.32 | 1.27 | 93 | 1004.6 |
| 20260506224604 | 14 | 277 | 3.2 | 9.7 | 0.03 | 1.35 | 1.27 | 93 | 1004.4 |
| 20260506224344 | 15 | 277 | 3.2 | 9.7 | 0.00 | 1.30 | 1.24 | 93 | 1004.6 |